Time;durP1;ratioP1;P1;durP2;ratioP2;P2;SDS_P1;SDS_P2;PMS_P1;PMS_P2;Temp;Humidity;BMP_temperature;BMP_pressure;BME280_temperature;BME280_humidity;BME280_pressure;Samples;Min_cycle;Max_cycle;Signal;HPM_P1;HPM_P2
2022/07/02 00:01:49;;;;;;;;;2.67;2.00;;;;;20.00;40.70;101887.94;5055689;28;67844;-57
2022/07/02 00:04:16;;;;;;;;;2.33;2.33;;;;;19.98;40.37;101887.19;5055624;28;45432;-57
2022/07/02 00:06:42;;;;;;;;;2.67;2.67;;;;;19.94;40.70;101891.09;5089179;27;45496;-57
2022/07/02 00:09:08;;;;;;;;;3.33;3.33;;;;;19.93;40.57;101892.09;5051237;28;69947;-56
2022/07/02 00:11:34;;;;;;;;;3.00;1.67;;;;;19.91;41.01;101894.00;5083092;27;46097;-57
2022/07/02 00:13:59;;;;;;;;;2.00;2.00;;;;;19.88;41.17;101894.25;5089693;27;45988;-57
2022/07/02 00:16:25;;;;;;;;;3.00;3.00;;;;;19.87;41.13;101886.25;5055962;28;45384;-57
2022/07/02 00:18:51;;;;;;;;;3.00;3.00;;;;;19.82;41.42;101892.84;5061537;28;45544;-56
2022/07/02 00:21:16;;;;;;;;;6.00;2.00;;;;;19.82;41.31;101890.13;5060908;28;46203;-56
2022/07/02 00:23:43;;;;;;;;;4.00;4.00;;;;;19.81;41.38;101890.22;5056796;28;45431;-57
2022/07/02 00:26:19;;;;;;;;;6.67;3.00;;;;;19.77;41.34;101891.41;5053339;28;45302;-57
2022/07/02 00:28:48;;;;;;;;;2.00;2.00;;;;;19.71;41.39;101898.13;5057241;28;45502;-57
2022/07/02 00:31:13;;;;;;;;;6.33;3.33;;;;;19.62;41.44;101888.84;5060064;28;46236;-57
2022/07/02 00:33:40;;;;;;;;;3.67;3.67;;;;;19.59;41.64;101889.06;5058788;28;65372;-57
2022/07/02 00:36:05;;;;;;;;;3.33;3.00;;;;;19.58;42.10;101887.34;5052263;28;65262;-57
2022/07/02 00:38:30;;;;;;;;;3.00;3.00;;;;;19.58;41.43;101886.47;5056529;28;45417;-57
2022/07/02 00:40:57;;;;;;;;;4.00;2.00;;;;;19.58;42.05;101889.16;5049849;28;46778;-57
2022/07/02 00:43:23;;;;;;;;;3.33;3.33;;;;;19.58;42.09;101883.78;5058335;28;45485;-56
2022/07/02 00:45:49;;;;;;;;;2.00;2.00;;;;;19.56;42.65;101883.88;5055765;28;45473;-57
2022/07/02 00:48:14;;;;;;;;;3.00;3.00;;;;;19.56;42.63;101883.88;5055308;28;63088;-57
2022/07/02 00:50:40;;;;;;;;;2.00;2.00;;;;;19.55;42.85;101882.16;5056716;28;75174;-57
2022/07/02 00:53:05;;;;;;;;;2.00;2.00;;;;;19.49;43.21;101879.91;5056691;28;45777;-56
2022/07/02 00:55:31;;;;;;;;;2.00;2.00;;;;;19.42;43.31;101878.59;5054961;28;45650;-57
2022/07/02 00:57:56;;;;;;;;;3.67;1.00;;;;;19.37;43.60;101875.38;5060718;28;49784;-56
2022/07/02 01:00:22;;;;;;;;;1.67;1.67;;;;;19.35;43.81;101878.19;5039153;28;46281;-57
2022/07/02 01:02:49;;;;;;;;;4.00;4.00;;;;;19.34;44.28;101873.75;5057796;28;45728;-57
2022/07/02 01:05:15;;;;;;;;;3.67;3.00;;;;;19.32;44.06;101872.97;5059494;28;45528;-56
2022/07/02 01:10:16;;;;;;;;;2.00;2.00;;;;;19.24;44.63;101867.28;5056258;28;45804;-56
2022/07/02 01:10:52;;;;;;;;;2.67;2.67;;;;;19.23;44.77;101873.63;5051753;28;46158;-57
2022/07/02 01:13:18;;;;;;;;;3.33;2.00;;;;;19.22;44.95;101869.22;5070481;27;45705;-56
2022/07/02 01:15:43;;;;;;;;;2.00;2.00;;;;;19.21;44.98;101867.50;5040449;28;45427;-57
2022/07/02 01:18:10;;;;;;;;;2.33;2.00;;;;;19.18;45.37;101868.56;5053762;28;66956;-57
2022/07/02 01:20:36;;;;;;;;;2.67;2.00;;;;;19.16;45.76;101871.38;5046509;28;46579;-56
2022/07/02 01:23:02;;;;;;;;;4.00;2.67;;;;;19.12;45.63;101879.78;5055524;28;45445;-57
2022/07/02 01:25:27;;;;;;;;;2.00;2.00;;;;;19.09;45.74;101883.56;5055692;28;45639;-57
2022/07/02 01:27:53;;;;;;;;;3.00;1.67;;;;;19.09;45.86;101878.16;5057248;28;45314;-56
2022/07/02 01:30:19;;;;;;;;;5.00;2.33;;;;;19.08;46.12;101887.22;5055043;28;45456;-56
2022/07/02 01:32:44;;;;;;;;;3.00;3.00;;;;;19.07;46.23;101881.94;5052043;28;45692;-56
2022/07/02 01:35:10;;;;;;;;;3.00;2.00;;;;;19.05;45.67;101884.75;5045098;28;51122;-56
2022/07/02 01:37:38;;;;;;;;;3.67;2.00;;;;;19.00;45.75;101886.88;5055467;28;47959;-57
2022/07/02 01:40:03;;;;;;;;;3.67;2.00;;;;;18.89;46.74;101893.03;5055105;28;46323;-56
2022/07/02 01:42:29;;;;;;;;;3.33;2.00;;;;;18.89;46.89;101893.03;5049394;28;45544;-56
2022/07/02 01:44:54;;;;;;;;;3.00;3.00;;;;;18.87;47.00;101884.13;5056553;28;65608;-56
2022/07/02 01:47:19;;;;;;;;;3.00;3.00;;;;;18.87;47.03;101892.22;5060983;28;45375;-57
2022/07/02 01:49:45;;;;;;;;;6.00;4.00;;;;;18.83;46.97;101894.25;5057684;28;69029;-57
2022/07/02 01:52:10;;;;;;;;;4.00;4.00;;;;;18.83;47.29;101882.63;5059535;28;45696;-57
2022/07/02 01:54:36;;;;;;;;;2.67;2.67;;;;;18.83;47.35;101886.16;5062900;28;48683;-57
2022/07/02 01:57:02;;;;;;;;;8.00;4.00;;;;;18.81;47.43;101881.84;5059012;28;45438;-56
2022/07/02 01:59:28;;;;;;;;;4.00;3.67;;;;;18.81;47.56;101884.53;5058327;28;45825;-57
2022/07/02 02:01:53;;;;;;;;;4.33;4.33;;;;;18.82;47.37;101884.44;5062650;28;45589;-57
2022/07/02 02:04:18;;;;;;;;;4.67;3.67;;;;;18.83;47.34;101885.31;5056059;28;61296;-57
2022/07/02 02:06:44;;;;;;;;;4.00;4.00;;;;;18.83;47.68;101882.63;5059934;28;52888;-57
2022/07/02 02:09:09;;;;;;;;;3.33;3.33;;;;;18.83;47.60;101879.91;5071694;27;45523;-56
2022/07/02 02:11:35;;;;;;;;;5.67;4.67;;;;;18.81;47.67;101881.84;5051917;28;67137;-57
2022/07/02 02:14:01;;;;;;;;;3.00;3.00;;;;;18.79;47.72;101875.72;5049509;28;45249;-57
2022/07/02 02:16:27;;;;;;;;;3.00;3.00;;;;;18.75;47.75;101874.19;5057725;28;45630;-57
2022/07/02 02:18:54;;;;;;;;;5.00;4.00;;;;;18.71;47.92;101872.66;5060331;28;46467;-57
2022/07/02 02:21:19;;;;;;;;;5.67;4.00;;;;;18.68;48.23;101871.91;5062266;28;45932;-57
2022/07/02 02:23:45;;;;;;;;;3.00;3.00;;;;;18.67;48.32;101875.56;5060188;28;45489;-57
2022/07/02 02:26:10;;;;;;;;;3.33;2.33;;;;;18.67;48.13;101864.78;5059589;28;45605;-57
2022/07/02 02:28:36;;;;;;;;;4.00;4.00;;;;;18.66;48.33;101864.91;5059915;28;46190;-56
2022/07/02 02:31:01;;;;;;;;;6.00;3.67;;;;;18.65;48.46;101872.09;5059640;28;45876;-57
2022/07/02 02:33:26;;;;;;;;;5.00;3.00;;;;;18.65;48.52;101871.25;5048501;28;45384;-57
2022/07/02 02:35:52;;;;;;;;;5.33;5.00;;;;;18.63;48.33;101865.97;5050958;28;45538;-56
2022/07/02 02:38:17;;;;;;;;;3.00;3.00;;;;;18.61;48.66;101867.03;5067311;28;71793;-56
2022/07/02 02:40:43;;;;;;;;;3.00;3.00;;;;;18.58;48.81;101860.03;5059534;28;49980;-57
2022/07/02 02:43:08;;;;;;;;;4.00;3.67;;;;;18.56;48.70;101856.56;5057687;28;63471;-57
2022/07/02 02:45:33;;;;;;;;;6.33;4.67;;;;;18.54;48.95;101871.09;5058357;28;67720;-57
2022/07/02 02:47:59;;;;;;;;;3.67;3.67;;;;;18.51;49.05;101866.78;5059053;28;45356;-57
2022/07/02 02:50:24;;;;;;;;;5.00;4.00;;;;;18.49;49.20;101866.03;5051596;28;66926;-57
2022/07/02 02:52:50;;;;;;;;;5.67;4.00;;;;;18.47;49.05;101863.44;5058975;28;45473;-57
2022/07/02 02:55:15;;;;;;;;;4.00;4.00;;;;;18.46;49.14;101856.34;5057373;28;62458;-57
2022/07/02 02:57:40;;;;;;;;;6.67;4.00;;;;;18.46;49.13;101860.84;5058682;28;45392;-57
2022/07/02 03:00:06;;;;;;;;;3.00;3.00;;;;;18.44;49.28;101857.41;5057148;28;62642;-57
2022/07/02 03:02:32;;;;;;;;;4.00;4.00;;;;;18.42;49.27;101854.81;5058580;28;45299;-57
2022/07/02 03:04:57;;;;;;;;;4.00;4.00;;;;;18.40;49.44;101854.03;5047153;28;64916;-56
2022/07/02 03:07:22;;;;;;;;;3.00;3.00;;;;;18.39;49.53;101856.84;5053293;28;66117;-57
2022/07/02 03:09:47;;;;;;;;;9.00;5.33;;;;;18.35;49.61;101862.44;5059141;28;61765;-57
2022/07/02 03:12:13;;;;;;;;;3.00;3.00;;;;;18.33;49.36;101864.34;5057351;28;59829;-57
2022/07/02 03:14:38;;;;;;;;;4.00;4.00;;;;;18.32;49.64;101857.25;5059763;28;63224;-57
2022/07/02 03:17:04;;;;;;;;;3.00;3.00;;;;;18.30;49.63;101859.19;5058039;28;64984;-57
2022/07/02 03:19:29;;;;;;;;;5.00;4.00;;;;;18.28;49.78;101863.78;5059375;28;45460;-57
2022/07/02 03:21:54;;;;;;;;;4.67;4.00;;;;;18.27;49.83;101867.44;5058649;28;52921;-57
2022/07/02 03:24:20;;;;;;;;;3.67;3.67;;;;;18.27;49.75;101866.59;5066344;28;67236;-56
2022/07/02 03:26:45;;;;;;;;;4.00;3.00;;;;;18.26;49.83;101864.84;5057934;27;69492;-57
2022/07/02 03:29:10;;;;;;;;;7.00;5.00;;;;;18.25;49.94;101863.13;5072405;27;68393;-57
2022/07/02 03:31:36;;;;;;;;;5.33;4.67;;;;;18.23;50.14;101867.78;5054449;27;64086;-57
2022/07/02 03:34:01;;;;;;;;;4.00;3.67;;;;;18.22;50.18;101866.03;5061280;28;45442;-57
2022/07/02 03:36:26;;;;;;;;;4.00;4.00;;;;;18.18;49.86;101862.66;5056794;27;72311;-57
2022/07/02 03:38:52;;;;;;;;;7.00;3.00;;;;;18.17;50.31;101864.50;5055057;28;67675;-56
2022/07/02 03:41:17;;;;;;;;;5.00;4.00;;;;;18.16;50.23;101853.81;5055388;28;64456;-57
2022/07/02 03:43:42;;;;;;;;;6.00;4.00;;;;;18.15;50.31;101860.19;5054797;28;45511;-57
2022/07/02 03:46:08;;;;;;;;;4.67;4.00;;;;;18.11;50.30;101859.53;5059030;28;46090;-57
2022/07/02 03:48:33;;;;;;;;;4.00;4.00;;;;;18.11;50.49;101864.06;5054180;28;45445;-57
2022/07/02 03:50:59;;;;;;;;;8.00;4.33;;;;;18.08;50.83;101867.81;5033543;28;45437;-57
2022/07/02 03:53:24;;;;;;;;;5.67;3.33;;;;;18.06;50.77;101858.09;5050607;28;63443;-56
2022/07/02 03:55:49;;;;;;;;;4.67;4.67;;;;;18.02;50.64;101869.06;5050663;28;46154;-56
2022/07/02 03:58:15;;;;;;;;;4.00;4.00;;;;;18.01;50.79;101861.06;5053436;28;45386;-56
2022/07/02 04:00:40;;;;;;;;;5.00;3.33;;;;;17.99;50.93;101858.50;5061519;28;66546;-57
2022/07/02 04:03:05;;;;;;;;;5.00;4.00;;;;;17.97;51.22;101859.56;5057738;28;57442;-57
2022/07/02 04:05:31;;;;;;;;;5.67;5.67;;;;;17.93;50.86;101858.03;5057139;28;45977;-57
2022/07/02 04:07:56;;;;;;;;;6.00;5.00;;;;;17.89;50.92;101857.31;5047971;28;45593;-57
2022/07/02 04:10:21;;;;;;;;;3.67;3.67;;;;;17.87;51.14;101861.94;5054983;28;45570;-56
2022/07/02 04:12:47;;;;;;;;;5.00;4.00;;;;;17.85;51.08;101864.72;5058173;28;52207;-57
2022/07/02 04:15:12;;;;;;;;;5.33;5.00;;;;;17.84;51.18;101864.81;5054290;28;45524;-56
2022/07/02 04:17:38;;;;;;;;;5.33;5.00;;;;;17.82;51.52;101867.63;5058088;28;45326;-57
2022/07/02 04:20:03;;;;;;;;;3.67;3.00;;;;;17.80;51.47;101866.00;5075151;27;61880;-56
2022/07/02 04:22:29;;;;;;;;;6.00;4.00;;;;;17.78;51.64;101862.53;5057466;28;45445;-56
2022/07/02 04:24:55;;;;;;;;;5.00;5.00;;;;;17.76;51.73;101859.09;5065284;28;45946;-57
2022/07/02 04:27:20;;;;;;;;;8.67;5.00;;;;;17.75;51.95;101868.09;5058826;28;45331;-57
2022/07/02 04:29:46;;;;;;;;;10.33;5.33;;;;;17.73;51.80;101862.84;5062937;27;45421;-57
2022/07/02 04:32:11;;;;;;;;;5.67;5.00;;;;;17.72;52.11;101861.09;5057709;28;61739;-57
2022/07/02 04:34:37;;;;;;;;;6.33;4.33;;;;;17.72;51.90;101865.59;5056858;28;45351;-56
2022/07/02 04:37:02;;;;;;;;;8.00;5.00;;;;;17.71;52.21;101870.13;5058486;28;57056;-56
2022/07/02 04:39:28;;;;;;;;;4.67;3.67;;;;;17.72;52.30;101870.97;5049707;28;45281;-56
2022/07/02 04:41:53;;;;;;;;;8.00;4.00;;;;;17.71;51.93;101871.97;5052967;28;45524;-57
2022/07/02 04:44:18;;;;;;;;;9.33;7.00;;;;;17.72;52.31;101871.84;5053920;28;45560;-57
2022/07/02 04:46:44;;;;;;;;;6.00;4.67;;;;;17.72;52.13;101873.66;5062424;28;45309;-56
2022/07/02 04:49:09;;;;;;;;;5.67;4.00;;;;;17.71;52.21;101867.44;5062753;27;45363;-57
2022/07/02 04:51:35;;;;;;;;;6.67;5.00;;;;;17.73;52.41;101867.31;5068403;28;45423;-57
2022/07/02 04:54:00;;;;;;;;;5.00;4.67;;;;;17.75;52.28;101865.41;5057040;28;46135;-56
2022/07/02 04:56:27;;;;;;;;;5.33;5.00;;;;;17.77;52.19;101868.84;5057762;28;56785;-56
2022/07/02 04:58:53;;;;;;;;;6.33;5.67;;;;;17.75;52.62;101870.81;5057914;28;45636;-56
2022/07/02 05:01:19;;;;;;;;;5.00;5.00;;;;;17.75;52.45;101868.09;5060908;28;45466;-56
2022/07/02 05:03:44;;;;;;;;;6.67;4.00;;;;;17.74;52.45;101869.91;5059536;28;46998;-57
2022/07/02 05:06:09;;;;;;;;;7.00;6.00;;;;;17.75;52.34;101862.72;5058031;28;45492;-57
2022/07/02 05:08:35;;;;;;;;;8.33;7.00;;;;;17.76;52.43;101861.78;5057514;28;54116;-57
2022/07/02 05:11:00;;;;;;;;;5.67;5.67;;;;;17.76;52.63;101875.22;5056328;28;45465;-57
2022/07/02 05:13:25;;;;;;;;;9.33;5.33;;;;;17.76;52.59;101867.16;5055527;28;45661;-56
2022/07/02 05:15:51;;;;;;;;;4.67;4.67;;;;;17.76;52.75;101861.78;5056587;28;45677;-56
2022/07/02 05:18:16;;;;;;;;;7.00;4.67;;;;;17.75;52.92;101868.97;5057922;28;61612;-56
2022/07/02 05:20:42;;;;;;;;;6.33;3.67;;;;;17.77;52.78;101863.47;5059993;28;45414;-57
2022/07/02 05:23:08;;;;;;;;;6.00;6.00;;;;;17.76;52.76;101867.16;5056447;27;45593;-56
2022/07/02 05:25:33;;;;;;;;;9.00;6.00;;;;;17.77;52.92;101866.16;5041923;28;45411;-56
2022/07/02 05:27:58;;;;;;;;;7.67;6.33;;;;;17.79;52.75;101869.63;5054015;28;45870;-56
2022/07/02 05:30:24;;;;;;;;;6.00;6.00;;;;;17.82;52.68;101866.75;5065789;27;45567;-56
2022/07/02 05:32:49;;;;;;;;;7.67;5.33;;;;;17.84;52.63;101875.59;5054137;28;48525;-57
2022/07/02 05:35:14;;;;;;;;;8.33;7.33;;;;;17.88;52.89;101870.88;5050189;28;45382;-56
2022/07/02 05:37:40;;;;;;;;;11.00;8.33;;;;;17.91;53.05;101876.06;5052648;28;66529;-56
2022/07/02 05:40:05;;;;;;;;;9.67;8.33;;;;;17.92;52.79;101865.19;5056887;28;45338;-57
2022/07/02 05:42:31;;;;;;;;;6.00;6.00;;;;;17.95;52.77;101869.53;5056463;28;46806;-56
2022/07/02 05:44:57;;;;;;;;;7.00;7.00;;;;;17.97;52.59;101873.88;5057746;28;45417;-57
2022/07/02 05:47:22;;;;;;;;;9.00;7.00;;;;;18.01;52.92;101867.31;5056768;28;45490;-56
2022/07/02 05:49:48;;;;;;;;;7.00;7.00;;;;;18.05;52.65;101857.22;5057200;28;45428;-56
2022/07/02 05:52:17;;;;;;;;;11.00;7.00;;;;;18.11;52.06;101867.59;5055871;28;69519;-56
2022/07/02 05:54:42;;;;;;;;;6.00;6.00;;;;;18.14;52.59;101870.06;5044332;28;45328;-56
2022/07/02 05:57:07;;;;;;;;;6.33;6.33;;;;;18.18;52.67;101868.06;5050091;28;45509;-56
2022/07/02 05:59:33;;;;;;;;;9.33;8.00;;;;;18.22;52.39;101871.41;5054864;28;66501;-56
2022/07/02 06:01:58;;;;;;;;;9.33;7.67;;;;;18.26;52.77;101865.72;5049741;28;70853;-56
2022/07/02 06:04:23;;;;;;;;;7.33;5.33;;;;;18.30;52.66;101869.97;5056157;28;57158;-56
2022/07/02 06:09:32;;;;;;;;;7.00;7.00;;;;;18.40;52.33;101870.19;5055905;28;45576;-56
2022/07/02 06:11:57;;;;;;;;;9.67;8.33;;;;;18.45;52.20;101861.81;5065138;27;45416;-56
2022/07/02 06:14:23;;;;;;;;;9.33;8.67;;;;;18.50;52.29;101862.38;5054174;28;45406;-56
2022/07/02 06:16:48;;;;;;;;;7.00;6.33;;;;;18.56;52.17;101864.63;5054112;28;68224;-56
2022/07/02 06:19:13;;;;;;;;;9.00;8.00;;;;;18.63;51.86;101865.97;5050955;28;61117;-56
2022/07/02 06:21:40;;;;;;;;;8.00;8.00;;;;;18.66;51.96;101868.44;5059160;28;46422;-56
2022/07/02 06:24:09;;;;;;;;;10.33;8.00;;;;;18.74;51.86;101869.78;5054535;28;68158;-56
2022/07/02 06:26:34;;;;;;;;;10.33;9.67;;;;;18.80;51.66;101867.53;5055256;28;45895;-56
2022/07/02 06:28:59;;;;;;;;;10.67;9.67;;;;;18.87;51.62;101851.78;5054818;28;59243;-57
2022/07/02 06:31:25;;;;;;;;;7.67;7.67;;;;;18.96;51.40;101861.97;5053175;28;69483;-56
2022/07/02 06:33:50;;;;;;;;;11.00;7.00;;;;;19.06;51.06;101854.13;5052355;28;60133;-57
2022/07/02 06:36:21;;;;;;;;;10.67;8.67;;;;;19.16;51.10;101855.22;5055189;28;45383;-56
2022/07/02 06:38:46;;;;;;;;;9.00;9.00;;;;;19.29;50.79;101857.03;5059290;28;45441;-56
2022/07/02 06:42:18;;;;;;;;;8.67;7.00;;;;;19.41;50.33;101855.28;5057879;28;45925;-56
2022/07/02 06:43:59;;;;;;;;;8.33;8.33;;;;;19.56;50.09;101854.22;5051415;28;45394;-55
2022/07/02 06:46:25;;;;;;;;;10.67;8.00;;;;;19.73;50.52;101857.53;5059487;28;46044;-56
2022/07/02 06:48:50;;;;;;;;;11.00;9.33;;;;;19.96;49.79;101854.03;5059361;28;45354;-56
2022/07/02 06:51:15;;;;;;;;;9.00;8.33;;;;;20.25;49.66;101848.31;5060434;28;46232;-57
2022/07/02 06:53:42;;;;;;;;;11.00;9.33;;;;;20.58;48.93;101854.00;5049862;28;68386;-56
2022/07/02 06:56:07;;;;;;;;;11.33;10.33;;;;;20.89;48.08;101852.53;5054642;28;45493;-57
2022/07/02 06:58:32;;;;;;;;;12.00;9.00;;;;;21.22;48.24;101847.31;5056122;28;45327;-56
2022/07/02 07:00:58;;;;;;;;;13.33;10.67;;;;;21.56;47.01;101855.47;5058999;28;62037;-57
2022/07/02 07:03:23;;;;;;;;;10.67;9.00;;;;;21.89;46.67;101853.72;5057785;28;51952;-57
2022/07/02 07:05:48;;;;;;;;;8.33;6.33;;;;;22.19;44.65;101846.78;5059407;28;45319;-56
2022/07/02 07:08:13;;;;;;;;;5.67;4.33;;;;;22.47;44.56;101853.50;5062521;28;61847;-56
2022/07/02 07:10:40;;;;;;;;;4.67;3.33;;;;;22.77;43.93;101851.88;5056501;28;74569;-56
2022/07/02 07:13:05;;;;;;;;;3.00;3.00;;;;;23.02;40.99;101850.59;5058072;28;45534;-56
2022/07/02 07:15:31;;;;;;;;;2.00;2.00;;;;;23.24;41.49;101848.78;5059205;28;45418;-56
2022/07/02 07:17:56;;;;;;;;;2.33;2.33;;;;;23.48;40.67;101843.03;5059538;28;46220;-56
2022/07/02 07:20:27;;;;;;;;;2.67;1.00;;;;;23.77;39.87;101840.41;5059286;28;47028;-56
2022/07/02 07:22:53;;;;;;;;;2.33;2.33;;;;;24.11;40.42;101839.25;5050801;28;45736;-56
2022/07/02 07:25:18;;;;;;;;;2.00;2.00;;;;;24.37;38.71;101830.56;5059040;28;45386;-56
2022/07/02 07:27:43;;;;;;;;;1.33;1.33;;;;;24.52;37.53;101836.41;5051912;28;45530;-56
2022/07/02 07:30:09;;;;;;;;;0.50;0.50;;;;;24.56;36.69;101833.28;5058196;28;72415;-55
2022/07/02 07:32:35;;;;;;;;;1.75;1.75;;;;;24.69;37.11;101833.00;5057574;28;45405;-55
2022/07/02 07:35:00;;;;;;;;;0.25;0.25;;;;;24.89;36.78;101836.53;5054580;28;51979;-55
2022/07/02 07:37:25;;;;;;;;;1.00;0.75;;;;;25.15;37.12;101829.59;5057766;28;62208;-55
2022/07/02 07:39:51;;;;;;;;;1.75;1.75;;;;;25.43;36.03;101827.81;5059473;28;45922;-55
2022/07/02 07:42:16;;;;;;;;;0.00;0.00;;;;;25.67;35.43;101832.72;5060143;28;66892;-56
2022/07/02 07:44:41;;;;;;;;;0.00;0.00;;;;;25.82;34.57;101829.50;5057841;28;68065;-56
2022/07/02 07:47:07;;;;;;;;;1.25;1.25;;;;;26.08;34.25;101832.38;5057310;28;45450;-56
2022/07/02 07:49:32;;;;;;;;;0.75;0.75;;;;;26.35;33.80;101823.28;5055664;28;50862;-55
2022/07/02 07:51:57;;;;;;;;;1.00;1.00;;;;;26.65;33.25;101828.44;5058098;28;67296;-55
2022/07/02 07:54:23;;;;;;;;;1.00;1.00;;;;;26.93;33.19;101821.03;5057148;28;60172;-56
2022/07/02 07:56:48;;;;;;;;;2.67;1.33;;;;;27.21;32.19;101829.06;5059470;28;45531;-56
2022/07/02 07:59:13;;;;;;;;;0.00;0.00;;;;;27.42;31.56;101822.34;5058076;28;45345;-56
2022/07/02 08:01:39;;;;;;;;;2.00;0.00;;;;;27.44;29.98;101823.91;5051674;28;65980;-56
2022/07/02 08:04:04;;;;;;;;;0.00;0.00;;;;;27.43;30.70;101826.78;5057813;28;59632;-56
2022/07/02 08:06:29;;;;;;;;;0.75;0.75;;;;;27.48;29.77;101824.44;5055579;28;46074;-56
2022/07/02 08:08:55;;;;;;;;;1.75;0.00;;;;;27.56;30.13;101822.59;5053917;28;69350;-56
2022/07/02 08:11:20;;;;;;;;;0.00;0.00;;;;;27.55;28.97;101818.16;5063820;28;45427;-56
2022/07/02 08:13:45;;;;;;;;;0.00;0.00;;;;;27.49;28.54;101805.16;5059205;27;45498;-55
2022/07/02 08:16:11;;;;;;;;;2.00;0.50;;;;;27.54;29.50;101813.69;5057308;28;45382;-55
2022/07/02 08:18:36;;;;;;;;;0.25;0.25;;;;;27.70;28.52;101812.06;5058218;28;57004;-55
2022/07/02 08:21:02;;;;;;;;;0.00;0.00;;;;;27.84;29.02;101816.88;5058606;28;45515;-56
2022/07/02 08:23:27;;;;;;;;;2.50;0.75;;;;;28.19;29.24;101812.19;5060921;28;45544;-55
2022/07/02 08:25:54;;;;;;;;;0.75;0.75;;;;;28.51;27.46;101821.47;5056788;28;45468;-55
2022/07/02 08:28:20;;;;;;;;;0.75;0.00;;;;;28.67;27.34;101825.25;5060304;28;46371;-56
2022/07/02 08:30:46;;;;;;;;;0.75;0.00;;;;;28.76;28.13;101829.69;5057344;28;45384;-55
2022/07/02 08:33:12;;;;;;;;;1.00;0.00;;;;;28.86;26.90;101824.03;5047404;28;54460;-55
2022/07/02 08:35:38;;;;;;;;;1.00;0.00;;;;;29.10;27.04;101809.44;5039956;28;45402;-55
2022/07/02 08:38:03;;;;;;;;;2.25;0.00;;;;;29.50;27.29;101810.38;5040270;28;45471;-55
2022/07/02 08:40:29;;;;;;;;;0.00;0.00;;;;;29.99;27.61;101808.41;5054854;28;68570;-55
2022/07/02 08:42:58;;;;;;;;;0.00;0.00;;;;;30.40;26.29;101810.00;5061440;28;45536;-55
2022/07/02 08:45:29;;;;;;;;;0.50;0.00;;;;;30.74;25.62;101811.44;5055859;28;45669;-55
2022/07/02 08:47:54;;;;;;;;;0.75;0.75;;;;;30.90;25.12;101814.03;5055361;28;45595;-55
2022/07/02 08:50:21;;;;;;;;;0.00;0.00;;;;;31.27;25.66;101803.19;5053402;28;45593;-55
2022/07/02 08:52:49;;;;;;;;;1.25;0.00;;;;;31.73;25.08;101807.59;5052760;28;45560;-55
2022/07/02 08:55:15;;;;;;;;;2.33;1.67;;;;;32.04;24.62;101800.97;5051393;28;45517;-55
2022/07/02 08:57:40;;;;;;;;;1.75;0.00;;;;;32.41;24.26;101802.63;5046337;28;46583;-54
2022/07/02 09:00:07;;;;;;;;;0.75;0.75;;;;;32.57;23.64;101797.91;5061249;27;46915;-55
2022/07/02 09:02:33;;;;;;;;;1.25;1.25;;;;;32.51;23.46;101798.69;5055333;28;45954;-55
2022/07/02 09:05:02;;;;;;;;;0.50;0.50;;;;;32.65;23.52;101800.50;5050152;28;56728;-50
2022/07/02 09:07:28;;;;;;;;;0.00;0.00;;;;;32.82;23.42;101798.31;5055076;28;48109;-53
2022/07/02 09:09:54;;;;;;;;;0.00;0.00;;;;;33.02;22.78;101803.09;5053633;28;70169;-56
2022/07/02 09:12:23;;;;;;;;;1.33;1.33;;;;;33.01;20.92;101805.03;5056243;28;45357;-56
2022/07/02 09:14:49;;;;;;;;;1.50;0.25;;;;;33.01;22.41;101802.28;5057375;28;45538;-57
2022/07/02 09:17:15;;;;;;;;;0.00;0.00;;;;;33.04;21.73;101790.84;5039499;28;47671;-56
2022/07/02 09:19:40;;;;;;;;;0.00;0.00;;;;;33.22;21.76;101789.44;5054511;28;45874;-56
2022/07/02 09:22:07;;;;;;;;;0.00;0.00;;;;;33.33;21.56;101794.41;5058394;28;45703;-56
2022/07/02 09:24:34;;;;;;;;;0.00;0.00;;;;;33.53;21.18;101801.91;5072939;27;45842;-56
2022/07/02 09:27:05;;;;;;;;;0.50;0.50;;;;;33.78;21.56;101788.41;5059836;28;46162;-56
2022/07/02 09:29:43;;;;;;;;;2.00;1.00;;;;;34.08;21.46;101802.75;5053193;28;45351;-56
2022/07/02 09:32:09;;;;;;;;;0.00;0.00;;;;;34.35;21.00;101797.25;5057409;28;45454;-57
2022/07/02 09:34:35;;;;;;;;;1.25;0.00;;;;;34.62;18.84;101800.03;5053878;28;45595;-57
2022/07/02 09:37:11;;;;;;;;;0.00;0.00;;;;;34.54;20.20;101794.75;5054958;28;47035;-57
2022/07/02 09:39:36;;;;;;;;;0.67;0.33;;;;;34.40;20.10;101794.72;5064928;28;45402;-58
2022/07/02 09:42:02;;;;;;;;;0.00;0.00;;;;;34.33;19.40;101787.50;5055641;27;67348;-49
2022/07/02 09:44:28;;;;;;;;;0.00;0.00;;;;;34.38;19.57;101788.59;5050911;28;45586;-59
2022/07/02 09:46:54;;;;;;;;;0.00;0.00;;;;;34.45;19.47;101780.28;5056200;28;47211;-63
2022/07/02 09:49:19;;;;;;;;;2.33;2.33;;;;;34.44;19.98;101782.19;5055894;28;45966;-52
2022/07/02 09:51:52;;;;;;;;;3.67;2.00;;;;;34.84;20.01;101788.78;5056847;28;45921;-57
2022/07/02 09:54:22;;;;;;;;;0.00;0.00;;;;;35.11;19.38;101767.47;5059887;28;45585;-52
2022/07/02 09:56:55;;;;;;;;;1.00;1.00;;;;;35.46;19.64;101778.19;5057080;27;45722;-55
2022/07/02 09:59:21;;;;;;;;;0.00;0.00;;;;;35.98;18.17;101767.06;5060391;28;45422;-55
2022/07/02 10:01:47;;;;;;;;;0.00;0.00;;;;;36.29;18.12;101772.81;5056448;28;45507;-64
2022/07/02 10:04:12;;;;;;;;;2.00;0.33;;;;;35.98;18.23;101766.22;5051180;28;45487;-63
2022/07/02 10:06:38;;;;;;;;;0.00;0.00;;;;;35.64;18.18;101754.50;5053573;28;46251;-63
2022/07/02 10:09:03;;;;;;;;;0.33;0.33;;;;;35.31;17.94;101770.16;5052703;28;45389;-63
2022/07/02 10:11:28;;;;;;;;;0.00;0.00;;;;;35.28;19.25;101762.31;5057238;28;45746;-63
2022/07/02 10:13:55;;;;;;;;;0.00;0.00;;;;;35.34;18.52;101760.56;5061094;28;45446;-63
2022/07/02 10:16:20;;;;;;;;;0.00;0.00;;;;;34.98;18.14;101759.19;5059626;28;46241;-63
2022/07/02 10:18:46;;;;;;;;;0.00;0.00;;;;;34.80;18.71;101760.72;5060754;28;45468;-61
2022/07/02 10:21:14;;;;;;;;;0.33;0.33;;;;;34.67;18.47;101747.78;5059456;28;47080;-63
2022/07/02 10:23:42;;;;;;;;;0.00;0.00;;;;;34.76;18.71;101742.88;5066081;27;45432;-62
2022/07/02 10:26:09;;;;;;;;;0.00;0.00;;;;;34.81;19.10;101745.84;5059655;28;45411;-63
2022/07/02 10:28:34;;;;;;;;;0.00;0.00;;;;;35.08;18.92;101743.00;5059689;28;45623;-63
2022/07/02 10:31:00;;;;;;;;;0.00;0.00;;;;;35.16;18.26;101739.16;5058437;28;45173;-52
2022/07/02 10:33:35;;;;;;;;;1.33;0.33;;;;;35.26;18.12;101739.53;5058335;28;45431;-63
2022/07/02 10:36:02;;;;;;;;;0.00;0.00;;;;;35.39;18.12;101739.50;5060716;28;45520;-64
2022/07/02 10:38:37;;;;;;;;;0.00;0.00;;;;;35.34;18.29;101735.69;5063627;28;45380;-62
2022/07/02 10:41:03;;;;;;;;;0.33;0.33;;;;;35.19;18.26;101733.19;5056821;28;45515;-68
2022/07/02 10:43:29;;;;;;;;;0.00;0.00;;;;;34.93;17.96;101733.06;5058338;28;45536;-45
2022/07/02 10:46:03;;;;;;;;;0.00;0.00;;;;;35.01;18.11;101733.91;5058252;28;46094;-49
2022/07/02 10:48:29;;;;;;;;;0.67;0.67;;;;;35.58;18.65;101734.13;5053413;28;45354;-52
2022/07/02 10:50:57;;;;;;;;;1.33;1.00;;;;;35.70;17.59;101723.19;5064808;28;45533;-60
2022/07/02 10:53:24;;;;;;;;;0.00;0.00;;;;;35.87;18.01;101727.13;5054333;28;45461;-53
2022/07/02 10:55:59;;;;;;;;;0.67;0.33;;;;;36.15;17.90;101730.53;5053396;28;45698;-53
2022/07/02 10:58:37;;;;;;;;;0.00;0.00;;;;;36.53;18.10;101730.44;5062803;28;45650;-52
2022/07/02 11:01:13;;;;;;;;;0.00;0.00;;;;;37.00;17.41;101723.53;5062045;28;45470;-50
2022/07/02 11:03:59;;;;;;;;;0.00;0.00;;;;;37.03;16.81;101717.56;5054663;28;45346;-52
2022/07/02 11:06:32;;;;;;;;;0.33;0.33;;;;;36.95;16.49;101723.38;5054366;28;46121;-52
2022/07/02 11:09:02;;;;;;;;;0.00;0.00;;;;;36.51;16.80;101718.72;5051955;28;45319;-48
2022/07/02 11:11:36;;;;;;;;;0.00;0.00;;;;;36.29;17.43;101723.81;5054279;28;46091;-50
2022/07/02 11:14:07;;;;;;;;;0.00;0.00;;;;;36.20;17.42;101723.22;5060304;28;45624;-51
2022/07/02 11:16:38;;;;;;;;;0.67;0.67;;;;;36.25;17.70;101717.88;5050816;28;46015;-49
2022/07/02 11:19:05;;;;;;;;;0.00;0.00;;;;;36.49;17.16;101717.25;5058579;28;45455;-49
2022/07/02 11:21:30;;;;;;;;;0.33;0.33;;;;;36.48;16.92;101712.78;5071677;28;45316;-48
2022/07/02 11:23:56;;;;;;;;;0.00;0.00;;;;;36.24;16.62;101724.50;5060811;28;45693;-54